createdAt,value
2017-12-10T00:00:41.031Z,-7.00
2017-12-10T00:03:14.629Z,-7.10
2017-12-10T00:05:48.286Z,-7.10
2017-12-10T00:08:22.710Z,-7.10
2017-12-10T00:10:56.472Z,-7.10
2017-12-10T00:13:30.008Z,-7.20
2017-12-10T00:16:04.328Z,-7.20
2017-12-10T00:18:37.899Z,-7.20
2017-12-10T00:21:11.597Z,-7.10
2017-12-10T00:23:45.106Z,-7.10
2017-12-10T00:26:19.632Z,-7.00
2017-12-10T00:28:53.167Z,-7.00
2017-12-10T00:31:26.861Z,-6.90
2017-12-10T00:34:00.441Z,-7.00
2017-12-10T00:36:34.019Z,-7.20
2017-12-10T00:39:07.751Z,-7.40
2017-12-10T00:41:42.178Z,-7.20
2017-12-10T00:44:16.342Z,-7.20
2017-12-10T00:46:50.040Z,-7.10
2017-12-10T00:49:23.615Z,-7.00
2017-12-10T00:51:57.278Z,-6.90
2017-12-10T00:54:30.776Z,-6.90
2017-12-10T00:57:04.435Z,-6.90
2017-12-10T00:59:38.897Z,-6.90
2017-12-10T01:02:13.221Z,-6.80
2017-12-10T01:04:46.935Z,-6.80
2017-12-10T01:07:20.470Z,-6.60
2017-12-10T01:09:54.268Z,-6.70
2017-12-10T01:12:27.961Z,-6.70
2017-12-10T01:15:01.626Z,-6.70
2017-12-10T01:17:35.139Z,-6.70
2017-12-10T01:20:09.456Z,-6.70
2017-12-10T01:22:42.997Z,-6.80
2017-12-10T01:25:16.559Z,-6.70
2017-12-10T01:27:50.148Z,-6.80
2017-12-10T01:30:23.681Z,-6.80
2017-12-10T01:32:58.195Z,-6.90
2017-12-10T01:35:33.189Z,-6.80
2017-12-10T01:38:07.736Z,-7.00
2017-12-10T01:40:42.129Z,-6.80
2017-12-10T01:43:15.750Z,-6.90
2017-12-10T01:45:50.042Z,-6.50
2017-12-10T01:48:23.589Z,-6.60
2017-12-10T01:50:57.151Z,-6.50
2017-12-10T01:53:30.916Z,-6.50
2017-12-10T01:56:04.477Z,-6.60
2017-12-10T01:58:38.054Z,-6.60
2017-12-10T02:01:11.711Z,-6.60
2017-12-10T02:03:45.259Z,-6.70
2017-12-10T02:06:18.872Z,-6.70
2017-12-10T02:08:52.517Z,-6.70
2017-12-10T02:11:26.077Z,-6.70
2017-12-10T02:14:00.380Z,-6.50
2017-12-10T02:16:34.034Z,-6.50
2017-12-10T02:19:07.568Z,-6.50
2017-12-10T02:21:41.896Z,-6.50
2017-12-10T02:24:16.446Z,-6.50
2017-12-10T02:26:50.180Z,-6.50
2017-12-10T02:29:23.895Z,-6.50
2017-12-10T02:31:57.427Z,-6.70
2017-12-10T02:34:31.181Z,-6.70
2017-12-10T02:37:04.759Z,-6.70
2017-12-10T02:39:38.338Z,-6.60
2017-12-10T02:42:11.939Z,-6.40
2017-12-10T02:44:45.460Z,-6.40
2017-12-10T02:47:19.169Z,-6.30
2017-12-10T02:49:52.779Z,-6.40
2017-12-10T02:52:26.613Z,-6.40
2017-12-10T02:55:00.166Z,-6.50
2017-12-10T02:57:34.683Z,-6.60
2017-12-10T03:00:08.181Z,-6.70
2017-12-10T03:02:41.743Z,-7.20
2017-12-10T03:05:15.370Z,-7.00
2017-12-10T03:07:49.885Z,-7.00
2017-12-10T03:10:23.471Z,-7.10
2017-12-10T03:12:57.003Z,-6.90
2017-12-10T03:15:30.533Z,-6.90
2017-12-10T03:18:04.189Z,-6.90
2017-12-10T03:20:37.715Z,-6.90
2017-12-10T03:23:11.988Z,-6.80
2017-12-10T03:25:45.537Z,-6.80
2017-12-10T03:28:19.248Z,-6.80
2017-12-10T03:30:52.919Z,-6.70
2017-12-10T03:33:27.414Z,-6.60
2017-12-10T03:36:00.945Z,-6.50
2017-12-10T03:38:34.670Z,-6.50
2017-12-10T03:41:08.227Z,-6.60
2017-12-10T03:43:41.945Z,-6.60
2017-12-10T03:46:15.652Z,-6.60
2017-12-10T03:48:49.375Z,-6.50
2017-12-10T03:51:23.768Z,-6.40
2017-12-10T03:53:57.376Z,-6.40
2017-12-10T03:56:30.932Z,-6.30
2017-12-10T03:59:04.484Z,-6.20
2017-12-10T04:01:38.805Z,-6.00
2017-12-10T04:04:12.360Z,-6.00
2017-12-10T04:06:45.955Z,-6.00
2017-12-10T04:09:19.600Z,-6.20
2017-12-10T04:11:54.026Z,-6.80
2017-12-10T04:14:27.632Z,-6.80
2017-12-10T04:17:01.341Z,-7.50
2017-12-10T04:19:35.713Z,-7.40
2017-12-10T04:22:09.243Z,-7.50
2017-12-10T04:24:43.540Z,-7.40
2017-12-10T04:31:52.405Z,-7.50
2017-12-10T04:34:26.175Z,-7.50
2017-12-10T04:36:59.710Z,-7.50
2017-12-10T04:39:34.106Z,-7.20
2017-12-10T04:42:07.850Z,-7.30
2017-12-10T04:44:41.446Z,-7.20
2017-12-10T04:47:15.102Z,-7.10
2017-12-10T04:49:48.747Z,-7.10
2017-12-10T04:52:22.400Z,-7.00
2017-12-10T04:54:56.169Z,-6.90
2017-12-10T04:57:29.817Z,-6.90
2017-12-10T05:00:03.517Z,-6.90
2017-12-10T05:02:37.115Z,-6.90
2017-12-10T05:05:10.630Z,-7.00
2017-12-10T05:07:44.142Z,-7.10
2017-12-10T05:10:18.455Z,-7.20
2017-12-10T05:12:52.154Z,-7.30
2017-12-10T05:15:26.485Z,-7.20
2017-12-10T05:18:00.078Z,-7.20
2017-12-10T05:20:33.666Z,-7.30
2017-12-10T05:23:07.998Z,-7.20
2017-12-10T05:25:41.527Z,-7.20
2017-12-10T05:28:15.213Z,-7.30
2017-12-10T05:30:48.748Z,-7.50
2017-12-10T05:33:22.312Z,-7.60
2017-12-10T05:35:56.019Z,-7.60
2017-12-10T05:38:30.302Z,-7.60
2017-12-10T05:41:03.853Z,-7.60
2017-12-10T05:43:37.444Z,-7.60
2017-12-10T05:46:11.100Z,-7.70
2017-12-10T05:48:44.709Z,-7.70
2017-12-10T05:51:19.045Z,-7.70
2017-12-10T05:53:52.598Z,-7.80
2017-12-10T05:56:26.311Z,-7.80
2017-12-10T05:58:59.841Z,-8.00
2017-12-10T06:01:33.568Z,-8.10
2017-12-10T06:04:07.058Z,-8.30
2017-12-10T06:06:40.756Z,-8.40
2017-12-10T06:09:14.255Z,-8.40
2017-12-10T06:11:47.825Z,-8.50
2017-12-10T06:14:22.242Z,-8.10
2017-12-10T06:16:55.889Z,-8.10
2017-12-10T06:19:29.439Z,-8.30
2017-12-10T06:22:02.953Z,-8.30
2017-12-10T06:24:36.615Z,-8.30
2017-12-10T06:27:10.293Z,-8.30
2017-12-10T06:29:43.829Z,-8.50
2017-12-10T06:32:17.613Z,-9.10
2017-12-10T06:34:51.112Z,-9.20
2017-12-10T06:37:24.768Z,-9.50
2017-12-10T06:39:58.272Z,-9.40
2017-12-10T06:42:31.990Z,-9.20
2017-12-10T06:45:05.493Z,-9.10
2017-12-10T06:47:39.026Z,-8.90
2017-12-10T06:50:13.276Z,-8.70
2017-12-10T06:52:46.886Z,-8.70
2017-12-10T06:55:20.653Z,-8.40
2017-12-10T06:57:54.155Z,-8.10
2017-12-10T07:00:28.492Z,-7.60
2017-12-10T07:03:02.084Z,-7.60
2017-12-10T07:05:35.834Z,-7.30
2017-12-10T07:08:09.544Z,-7.30
2017-12-10T07:10:43.206Z,-7.10
2017-12-10T07:13:16.803Z,-7.20
2017-12-10T07:15:50.436Z,-7.10
2017-12-10T07:18:24.146Z,-7.00
2017-12-10T07:20:57.822Z,-6.70
2017-12-10T07:23:31.429Z,-6.40
2017-12-10T07:26:05.138Z,-6.40
2017-12-10T07:28:38.721Z,-6.30
2017-12-10T07:31:12.357Z,-6.10
2017-12-10T07:33:46.066Z,-5.90
2017-12-10T07:36:19.647Z,-5.70
2017-12-10T07:38:53.155Z,-5.60
2017-12-10T07:41:26.635Z,-5.60
2017-12-10T07:44:00.157Z,-5.50
2017-12-10T07:46:33.707Z,-5.50
2017-12-10T07:49:07.259Z,-5.40
2017-12-10T07:51:40.808Z,-5.20
2017-12-10T07:54:14.490Z,-5.30
2017-12-10T07:56:48.130Z,-5.20
2017-12-10T07:59:21.659Z,-5.20
2017-12-10T08:01:55.267Z,-5.20
2017-12-10T08:04:29.617Z,-5.30
2017-12-10T08:07:04.158Z,-5.30
2017-12-10T08:09:37.823Z,-5.30
2017-12-10T08:12:11.373Z,-5.30
2017-12-10T08:14:45.701Z,-5.40
2017-12-10T08:17:19.278Z,-5.40
2017-12-10T08:19:53.016Z,-5.30
2017-12-10T08:22:26.768Z,-5.30
2017-12-10T08:25:00.567Z,-5.20
2017-12-10T08:27:34.303Z,-5.00
2017-12-10T08:30:08.628Z,-5.20
2017-12-10T08:32:42.296Z,-5.20
2017-12-10T08:35:16.019Z,-5.00
2017-12-10T08:37:49.583Z,-4.90
2017-12-10T08:40:23.147Z,-4.70
2017-12-10T08:42:57.643Z,-4.50
2017-12-10T08:45:31.324Z,-4.50
2017-12-10T08:48:04.859Z,-4.30
2017-12-10T08:50:38.472Z,-4.10
2017-12-10T08:53:11.992Z,-4.10
2017-12-10T08:55:45.565Z,-3.90
2017-12-10T08:58:19.257Z,-3.90
2017-12-10T09:00:53.578Z,-3.60
2017-12-10T09:03:27.393Z,-3.60
2017-12-10T09:06:01.086Z,-3.60
2017-12-10T09:08:34.740Z,-3.50
2017-12-10T09:11:08.294Z,-3.50
2017-12-10T09:13:42.587Z,-3.40
2017-12-10T09:16:17.013Z,-3.60
2017-12-10T09:18:50.671Z,-3.70
2017-12-10T09:21:24.310Z,-3.80
2017-12-10T09:23:57.899Z,-3.60
2017-12-10T09:26:31.469Z,-3.30
2017-12-10T09:29:05.174Z,-3.90
2017-12-10T09:31:39.473Z,-3.40
2017-12-10T09:34:13.935Z,-3.30
2017-12-10T09:36:47.463Z,-3.30
2017-12-10T09:39:20.982Z,-3.00
2017-12-10T09:41:54.550Z,-2.90
2017-12-10T09:44:28.062Z,-2.80
2017-12-10T09:47:02.556Z,-2.50
2017-12-10T09:49:36.255Z,-2.50
2017-12-10T09:52:09.811Z,-2.10
2017-12-10T09:54:43.335Z,-1.90
2017-12-10T09:57:16.892Z,-1.80
2017-12-10T09:59:50.399Z,-1.70
2017-12-10T10:02:23.974Z,-1.60
2017-12-10T10:04:57.577Z,-1.50
2017-12-10T10:07:31.181Z,-1.50
2017-12-10T10:10:04.779Z,-1.40
2017-12-10T10:12:38.494Z,-1.30
2017-12-10T10:15:12.130Z,-1.20
2017-12-10T10:17:45.731Z,-1.20
2017-12-10T10:20:19.509Z,-1.20
2017-12-10T10:22:53.810Z,-1.00
2017-12-10T10:25:27.330Z,-1.10
2017-12-10T10:28:01.169Z,-0.90
2017-12-10T10:30:35.231Z,-0.80
2017-12-10T10:33:08.821Z,-0.70
2017-12-10T10:35:42.530Z,-0.60
2017-12-10T10:38:16.102Z,-0.50
2017-12-10T10:40:49.881Z,-0.40
2017-12-10T10:43:23.399Z,-0.30
2017-12-10T10:45:56.938Z,-0.10
2017-12-10T10:48:30.513Z,0.10
2017-12-10T10:51:04.101Z,0.40
2017-12-10T10:53:37.728Z,0.70
2017-12-10T10:56:11.294Z,0.90
2017-12-10T10:58:45.655Z,1.00
2017-12-10T11:01:19.301Z,1.00
2017-12-10T11:03:52.970Z,1.20
2017-12-10T11:06:27.254Z,1.10
2017-12-10T11:09:00.872Z,1.10
2017-12-10T11:11:34.430Z,1.30
2017-12-10T11:14:08.171Z,1.40
2017-12-10T11:16:42.461Z,1.40
2017-12-10T11:19:16.254Z,1.30
2017-12-10T11:21:49.838Z,1.30
2017-12-10T11:24:23.541Z,1.30
2017-12-10T11:26:57.066Z,1.30
2017-12-10T11:29:31.733Z,1.30
2017-12-10T11:32:05.525Z,1.30
2017-12-10T11:34:39.052Z,1.20
2017-12-10T11:37:12.621Z,1.30
2017-12-10T11:39:46.236Z,1.30
2017-12-10T11:42:19.824Z,1.30
2017-12-10T11:44:53.406Z,1.20
2017-12-10T11:47:27.002Z,1.20
2017-12-10T11:50:01.348Z,1.30
2017-12-10T11:52:34.932Z,1.30
2017-12-10T11:55:08.459Z,1.30
2017-12-10T11:57:41.946Z,1.40
2017-12-10T12:00:15.504Z,1.50
2017-12-10T12:02:49.964Z,1.60
2017-12-10T12:05:23.543Z,1.50
2017-12-10T12:07:57.104Z,1.60
2017-12-10T12:10:30.650Z,1.80
2017-12-10T12:13:05.060Z,1.90
2017-12-10T12:15:38.684Z,1.90
2017-12-10T12:18:12.256Z,2.00
2017-12-10T12:20:45.803Z,2.00
2017-12-10T12:23:19.361Z,2.00
2017-12-10T12:25:52.897Z,1.90
2017-12-10T12:28:27.167Z,2.00
2017-12-10T12:31:01.536Z,2.00
2017-12-10T12:33:35.028Z,2.00
2017-12-10T12:36:08.710Z,2.00
2017-12-10T12:38:42.253Z,2.00
2017-12-10T12:41:15.916Z,2.00
2017-12-10T12:43:49.501Z,2.10
2017-12-10T12:46:23.082Z,2.40
2017-12-10T12:48:56.570Z,2.40
2017-12-10T12:51:30.197Z,2.60
2017-12-10T12:54:03.909Z,2.50
2017-12-10T12:56:37.437Z,2.50
2017-12-10T12:59:11.371Z,2.40
2017-12-10T13:01:45.041Z,2.60
2017-12-10T13:04:19.316Z,2.50
2017-12-10T13:06:52.946Z,2.50
2017-12-10T13:09:26.454Z,2.60
2017-12-10T13:12:00.031Z,2.80
2017-12-10T13:14:34.568Z,2.80
2017-12-10T13:17:08.269Z,2.70
2017-12-10T13:19:41.753Z,2.80
2017-12-10T13:22:16.118Z,2.90
2017-12-10T13:24:49.678Z,2.90
2017-12-10T13:27:23.180Z,2.90
2017-12-10T13:29:56.667Z,2.80
2017-12-10T13:32:30.978Z,2.90
2017-12-10T13:35:04.564Z,2.90
2017-12-10T13:37:38.187Z,2.80
2017-12-10T13:40:11.699Z,2.80
2017-12-10T13:42:45.239Z,2.70
2017-12-10T13:45:18.761Z,2.70
2017-12-10T13:47:52.311Z,3.00
2017-12-10T13:50:25.856Z,2.90
2017-12-10T13:52:59.426Z,2.80
2017-12-10T13:55:33.178Z,2.90
2017-12-10T13:58:06.748Z,3.00
2017-12-10T14:00:40.276Z,3.10
2017-12-10T14:03:13.862Z,2.80
2017-12-10T14:05:47.442Z,2.60
2017-12-10T14:08:21.063Z,2.50
2017-12-10T14:10:54.607Z,2.50
2017-12-10T14:13:28.313Z,2.40
2017-12-10T14:16:01.894Z,2.40
2017-12-10T14:18:35.417Z,2.30
2017-12-10T14:21:08.917Z,2.40
2017-12-10T14:23:42.495Z,2.60
2017-12-10T14:26:16.005Z,2.70
2017-12-10T14:28:49.555Z,2.80
2017-12-10T14:31:23.088Z,2.80
2017-12-10T14:33:56.588Z,2.70
2017-12-10T14:36:30.146Z,2.50
2017-12-10T14:39:05.141Z,2.80
2017-12-10T14:41:38.904Z,2.80
2017-12-10T14:44:12.543Z,2.90
2017-12-10T14:46:46.901Z,2.90
2017-12-10T14:49:20.444Z,2.90
2017-12-10T14:51:54.150Z,3.00
2017-12-10T14:54:27.717Z,2.90
2017-12-10T14:57:01.285Z,2.80
2017-12-10T14:59:34.952Z,2.80
2017-12-10T15:02:09.274Z,3.00
2017-12-10T15:04:43.001Z,3.00
2017-12-10T15:07:16.774Z,2.90
2017-12-10T15:09:50.364Z,2.90
2017-12-10T15:12:23.982Z,2.70
2017-12-10T15:14:57.567Z,2.60
2017-12-10T15:17:31.200Z,2.60
2017-12-10T15:20:04.770Z,2.80
2017-12-10T15:22:39.280Z,3.00
2017-12-10T15:25:12.887Z,3.00
2017-12-10T15:27:46.399Z,2.90
2017-12-10T15:30:19.976Z,2.80
2017-12-10T15:32:53.496Z,2.80
2017-12-10T15:35:27.105Z,2.80
2017-12-10T15:38:00.860Z,2.70
2017-12-10T15:40:34.409Z,2.60
2017-12-10T15:43:09.015Z,2.60
2017-12-10T15:45:42.583Z,2.60
2017-12-10T15:48:16.949Z,2.80
2017-12-10T15:50:50.680Z,2.80
2017-12-10T15:53:24.361Z,2.80
2017-12-10T15:55:57.891Z,2.90
2017-12-10T15:58:31.460Z,3.00
2017-12-10T16:01:05.361Z,2.80
2017-12-10T16:03:39.104Z,2.60
2017-12-10T16:06:12.901Z,2.50
2017-12-10T16:08:46.748Z,2.50
2017-12-10T16:11:20.582Z,2.40
2017-12-10T16:13:54.339Z,2.30
2017-12-10T16:16:28.900Z,2.10
2017-12-10T16:19:02.695Z,2.10
2017-12-10T16:21:36.505Z,2.10
2017-12-10T16:24:10.078Z,2.10
2017-12-10T16:26:43.903Z,2.10
2017-12-10T16:29:18.369Z,2.10
2017-12-10T16:31:52.844Z,2.20
2017-12-10T16:34:26.466Z,2.20
2017-12-10T16:37:00.210Z,2.30
2017-12-10T16:39:33.994Z,2.30
2017-12-10T16:42:07.731Z,2.30
2017-12-10T16:44:41.450Z,2.30
2017-12-10T16:47:14.983Z,2.40
2017-12-10T16:49:49.291Z,2.40
2017-12-10T16:52:23.705Z,2.40
2017-12-10T16:54:57.297Z,2.40
2017-12-10T16:57:31.620Z,2.50
2017-12-10T17:00:06.036Z,2.60
2017-12-10T17:02:39.756Z,2.60
2017-12-10T17:05:13.259Z,2.60
2017-12-10T17:07:46.897Z,2.70
2017-12-10T17:10:20.620Z,2.60
2017-12-10T17:12:54.134Z,2.60
2017-12-10T17:15:27.709Z,2.60
2017-12-10T17:18:01.349Z,2.60
2017-12-10T17:20:34.956Z,2.60
2017-12-10T17:23:08.569Z,2.60
2017-12-10T17:25:42.277Z,2.70
2017-12-10T17:28:15.898Z,2.70
2017-12-10T17:30:49.588Z,2.60
2017-12-10T17:33:23.902Z,2.70
2017-12-10T17:35:57.405Z,2.70
2017-12-10T17:38:31.059Z,2.70
2017-12-10T17:41:05.668Z,2.80
2017-12-10T17:43:39.342Z,2.90
2017-12-10T17:46:13.706Z,2.80
2017-12-10T17:48:47.375Z,2.80
2017-12-10T17:51:20.894Z,2.90
2017-12-10T17:53:54.455Z,3.00
2017-12-10T17:56:28.265Z,3.10
2017-12-10T17:59:01.765Z,3.20
2017-12-10T18:01:35.335Z,3.30
2017-12-10T18:04:08.934Z,3.30
2017-12-10T18:06:42.454Z,3.30
2017-12-10T18:09:16.122Z,3.30
2017-12-10T18:11:49.640Z,3.30
2017-12-10T18:14:23.254Z,3.30
2017-12-10T18:16:56.835Z,3.30
2017-12-10T18:19:31.920Z,3.30
2017-12-10T18:22:05.510Z,3.20
2017-12-10T18:24:39.114Z,3.20
2017-12-10T18:27:12.898Z,3.10
2017-12-10T18:29:46.466Z,3.10
2017-12-10T18:32:20.189Z,3.00
2017-12-10T18:34:54.419Z,2.80
2017-12-10T18:37:27.981Z,3.00
2017-12-10T18:40:01.544Z,2.90
2017-12-10T18:42:35.159Z,2.80
2017-12-10T18:45:08.701Z,2.70
2017-12-10T18:47:42.252Z,2.70
2017-12-10T18:50:15.934Z,2.80
2017-12-10T18:52:49.595Z,2.90
2017-12-10T18:55:23.940Z,2.90
2017-12-10T18:57:57.484Z,2.90
2017-12-10T19:00:31.133Z,2.90
2017-12-10T19:03:05.395Z,3.10
2017-12-10T19:05:39.187Z,3.10
2017-12-10T19:08:12.823Z,3.10
2017-12-10T19:10:47.193Z,3.00
2017-12-10T19:13:20.850Z,2.90
2017-12-10T19:15:54.465Z,2.90
2017-12-10T19:18:28.024Z,3.00
2017-12-10T19:21:01.614Z,3.10
2017-12-10T19:23:35.191Z,3.20
2017-12-10T19:26:09.517Z,3.20
2017-12-10T19:28:43.972Z,3.20
2017-12-10T19:31:17.628Z,3.20
2017-12-10T19:33:51.302Z,3.20
2017-12-10T19:36:24.986Z,3.20
2017-12-10T19:38:58.487Z,3.10
2017-12-10T19:41:32.108Z,3.10
2017-12-10T19:44:05.666Z,3.10
2017-12-10T19:46:39.393Z,3.10
2017-12-10T19:49:13.241Z,3.10
2017-12-10T19:51:47.005Z,3.10
2017-12-10T19:54:20.607Z,3.10
2017-12-10T19:56:54.224Z,3.10
2017-12-10T19:59:28.532Z,3.30
2017-12-10T20:02:02.284Z,3.20
2017-12-10T20:04:35.871Z,3.20
2017-12-10T20:07:09.432Z,3.20
2017-12-10T20:09:42.994Z,3.50
2017-12-10T20:12:16.854Z,3.50
2017-12-10T20:14:50.657Z,3.50
2017-12-10T20:17:24.310Z,3.70
2017-12-10T20:19:57.941Z,3.90
2017-12-10T20:22:31.471Z,3.80
2017-12-10T20:25:05.866Z,3.80
2017-12-10T20:27:39.858Z,3.80
2017-12-10T20:30:14.552Z,4.00
2017-12-10T20:32:48.196Z,3.90
2017-12-10T20:35:21.723Z,4.10
2017-12-10T20:37:55.332Z,4.10
2017-12-10T20:40:28.976Z,4.00
2017-12-10T20:43:02.524Z,3.90
2017-12-10T20:45:36.163Z,3.80
2017-12-10T20:48:09.771Z,3.90
2017-12-10T20:50:43.443Z,4.00
2017-12-10T20:53:16.996Z,4.10
2017-12-10T20:55:50.590Z,4.10
2017-12-10T20:58:24.232Z,4.10
2017-12-10T21:00:57.742Z,4.10
2017-12-10T21:03:31.360Z,4.20
2017-12-10T21:06:05.063Z,4.20
2017-12-10T21:08:39.646Z,4.10
2017-12-10T21:13:51.960Z,4.00
2017-12-10T21:16:25.611Z,4.00
2017-12-10T21:18:59.177Z,4.00
2017-12-10T21:21:32.685Z,3.90
2017-12-10T21:24:06.386Z,3.90
2017-12-10T21:26:39.993Z,3.80
2017-12-10T21:29:13.586Z,3.70
2017-12-10T21:31:47.231Z,3.70
2017-12-10T21:34:20.919Z,3.50
2017-12-10T21:36:54.535Z,3.40
2017-12-10T21:39:28.093Z,3.40
2017-12-10T21:42:01.771Z,3.40
2017-12-10T21:44:35.369Z,3.50
2017-12-10T21:47:08.993Z,3.60
2017-12-10T21:49:42.598Z,3.70
2017-12-10T21:52:16.134Z,3.80
2017-12-10T21:54:50.611Z,3.60
2017-12-10T21:57:24.918Z,3.60
2017-12-10T21:59:58.653Z,3.50
2017-12-10T22:02:32.386Z,3.60
2017-12-10T22:05:06.019Z,3.60
2017-12-10T22:07:39.624Z,3.80
2017-12-10T22:10:13.929Z,4.40
2017-12-10T22:12:47.634Z,4.40
2017-12-10T22:15:21.156Z,4.70
2017-12-10T22:18:05.976Z,4.80
2017-12-10T22:23:33.829Z,5.10
2017-12-10T22:26:07.520Z,5.20
2017-12-10T22:28:41.012Z,5.40
2017-12-10T22:31:14.587Z,5.50
2017-12-10T22:33:48.269Z,5.70
2017-12-10T22:36:22.644Z,5.70
2017-12-10T22:38:56.910Z,5.70
2017-12-10T22:41:31.356Z,5.80
2017-12-10T22:44:04.842Z,5.70
2017-12-10T22:46:38.390Z,5.70
2017-12-10T22:49:12.001Z,5.60
2017-12-10T22:51:45.522Z,5.70
2017-12-10T22:54:19.858Z,5.80
2017-12-10T22:56:53.473Z,5.80
2017-12-10T22:59:28.039Z,5.80
2017-12-10T23:02:02.893Z,5.90
2017-12-10T23:04:39.315Z,5.90
2017-12-10T23:07:13.442Z,5.90
2017-12-10T23:09:47.490Z,6.20
2017-12-10T23:12:21.412Z,6.20
2017-12-10T23:15:05.235Z,6.20
2017-12-10T23:17:39.708Z,6.10
2017-12-10T23:20:14.251Z,6.30
2017-12-10T23:22:48.984Z,6.20
2017-12-10T23:25:23.758Z,6.10
2017-12-10T23:27:57.641Z,6.20
2017-12-10T23:30:32.595Z,6.30
2017-12-10T23:33:11.155Z,6.30
2017-12-10T23:35:45.129Z,6.40
2017-12-10T23:38:19.097Z,6.30
2017-12-10T23:40:53.502Z,6.30
2017-12-10T23:43:28.163Z,6.20
2017-12-10T23:46:02.830Z,6.30
2017-12-10T23:48:36.965Z,6.30
2017-12-10T23:51:10.921Z,6.30
2017-12-10T23:53:46.024Z,6.40
2017-12-10T23:56:20.551Z,6.30
2017-12-10T23:58:54.733Z,6.20
